createdAt,value
2019-04-25T00:02:36.795Z,1.37
2019-04-25T00:05:11.219Z,0.60
2019-04-25T00:07:45.324Z,0.97
2019-04-25T00:10:18.299Z,0.60
2019-04-25T00:12:49.305Z,1.57
2019-04-25T00:15:20.341Z,4.10
2019-04-25T00:17:52.188Z,0.57
2019-04-25T00:20:23.351Z,2.07
2019-04-25T00:23:02.061Z,2.23
2019-04-25T00:25:51.336Z,1.63
2019-04-25T00:28:23.490Z,2.80
2019-04-25T00:30:54.687Z,2.43
2019-04-25T00:33:31.485Z,2.33
2019-04-25T00:36:02.051Z,0.80
2019-04-25T00:38:37.843Z,0.57
2019-04-25T00:41:08.885Z,0.60
2019-04-25T00:43:42.204Z,0.80
2019-04-25T00:46:15.605Z,0.97
2019-04-25T00:48:47.733Z,0.50
2019-04-25T00:51:18.631Z,1.60
2019-04-25T00:53:51.756Z,1.10
2019-04-25T00:56:22.426Z,1.73
2019-04-25T00:59:05.440Z,0.80
2019-04-25T01:01:59.027Z,0.53
2019-04-25T01:04:33.653Z,0.97
2019-04-25T01:07:06.396Z,1.03
2019-04-25T01:09:37.259Z,0.77
2019-04-25T01:12:12.993Z,0.80
2019-04-25T01:14:45.386Z,0.70
2019-04-25T01:17:17.077Z,3.53
2019-04-25T01:19:48.919Z,1.70
2019-04-25T01:22:20.047Z,2.83
2019-04-25T01:24:51.448Z,0.47
2019-04-25T01:27:23.457Z,1.37
2019-04-25T01:29:55.278Z,1.60
2019-04-25T01:32:35.452Z,0.73
2019-04-25T01:35:29.779Z,1.97
2019-04-25T01:38:25.710Z,0.93
2019-04-25T01:41:12.210Z,0.63
2019-04-25T01:43:53.250Z,0.70
2019-04-25T01:46:24.305Z,0.60
2019-04-25T01:48:57.249Z,1.30
2019-04-25T01:51:28.332Z,1.10
2019-04-25T01:53:59.434Z,3.33
2019-04-25T01:56:30.434Z,1.53
2019-04-25T01:59:03.748Z,1.63
2019-04-25T02:01:38.042Z,0.73
2019-04-25T02:04:09.025Z,0.93
2019-04-25T02:06:40.372Z,0.70
2019-04-25T02:09:13.647Z,0.80
2019-04-25T02:11:59.659Z,1.00
2019-04-25T02:14:30.740Z,0.70
2019-04-25T02:17:02.882Z,0.67
2019-04-25T02:19:35.722Z,1.17
2019-04-25T02:22:07.594Z,12.13
2019-04-25T02:24:38.748Z,1.93
2019-04-25T02:27:09.759Z,1.50
2019-04-25T02:29:40.686Z,2.83
2019-04-25T02:32:14.286Z,1.40
2019-04-25T02:34:45.605Z,2.03
2019-04-25T02:37:16.783Z,0.97
2019-04-25T02:39:48.099Z,1.33
2019-04-25T02:42:19.117Z,2.33
2019-04-25T02:45:00.675Z,0.67
2019-04-25T02:47:39.321Z,2.00
2019-04-25T02:50:28.953Z,0.50
2019-04-25T02:53:24.026Z,2.93
2019-04-25T02:55:56.681Z,1.37
2019-04-25T02:58:30.648Z,5.07
2019-04-25T03:01:16.554Z,1.63
2019-04-25T03:03:38.486Z,3.90
2019-04-25T03:06:10.019Z,0.70
2019-04-25T03:08:44.922Z,1.30
2019-04-25T03:11:16.000Z,2.20
2019-04-25T03:13:46.850Z,2.13
2019-04-25T03:16:17.873Z,1.27
2019-04-25T03:19:14.273Z,0.60
2019-04-25T03:21:48.908Z,0.90
2019-04-25T03:24:19.733Z,1.07
2019-04-25T03:26:53.131Z,1.30
2019-04-25T03:29:24.844Z,1.43
2019-04-25T03:31:56.485Z,1.20
2019-04-25T03:34:27.537Z,2.00
2019-04-25T03:36:58.812Z,2.67
2019-04-25T03:39:29.842Z,1.17
2019-04-25T03:42:01.355Z,0.60
2019-04-25T03:44:33.764Z,1.33
2019-04-25T03:47:07.239Z,0.70
2019-04-25T03:49:38.108Z,1.83
2019-04-25T03:52:08.891Z,0.90
2019-04-25T03:54:40.403Z,0.63
2019-04-25T03:57:11.352Z,2.00
2019-04-25T03:59:45.114Z,0.70
2019-04-25T04:02:16.170Z,1.03
2019-04-25T04:04:47.447Z,0.77
2019-04-25T04:07:18.453Z,0.97
2019-04-25T04:09:49.173Z,1.73
2019-04-25T04:12:20.434Z,1.90
2019-04-25T04:14:51.510Z,2.00
2019-04-25T04:17:33.954Z,0.80
2019-04-25T04:20:23.523Z,2.23
2019-04-25T04:23:17.995Z,2.27
2019-04-25T04:25:49.477Z,0.70
2019-04-25T04:28:20.575Z,1.10
2019-04-25T04:30:51.416Z,3.20
2019-04-25T04:33:30.144Z,4.87
2019-04-25T04:35:55.431Z,3.13
2019-04-25T04:38:28.743Z,6.63
2019-04-25T04:41:01.018Z,2.97
2019-04-25T04:43:34.116Z,1.67
2019-04-25T04:46:05.383Z,0.87
2019-04-25T04:48:36.305Z,2.93
2019-04-25T04:51:10.484Z,6.90
2019-04-25T04:53:43.782Z,1.73
2019-04-25T04:56:16.532Z,0.83
2019-04-25T04:58:48.900Z,1.63
2019-04-25T05:01:21.393Z,1.00
2019-04-25T05:04:03.954Z,2.23
2019-04-25T05:06:54.911Z,2.43
2019-04-25T05:09:27.713Z,2.10
2019-04-25T05:11:58.305Z,0.87
2019-04-25T05:14:29.728Z,1.70
2019-04-25T05:17:00.804Z,2.90
2019-04-25T05:19:34.360Z,3.03
2019-04-25T05:22:05.472Z,3.07
2019-04-25T05:24:36.421Z,6.13
2019-04-25T05:27:15.414Z,2.33
2019-04-25T05:29:45.938Z,2.83
2019-04-25T05:32:17.300Z,1.90
2019-04-25T05:34:49.427Z,4.07
2019-04-25T05:37:26.276Z,1.73
2019-04-25T05:39:56.127Z,1.43
2019-04-25T05:42:46.615Z,0.70
2019-04-25T05:45:19.860Z,1.47
2019-04-25T05:47:50.928Z,1.37
2019-04-25T05:50:23.611Z,2.40
2019-04-25T05:52:55.191Z,1.20
2019-04-25T05:55:30.030Z,5.20
2019-04-25T05:58:00.964Z,1.50
2019-04-25T06:00:34.310Z,3.30
2019-04-25T06:03:05.656Z,1.83
2019-04-25T06:05:40.050Z,4.50
2019-04-25T06:08:11.462Z,1.83
2019-04-25T06:10:57.374Z,4.10
2019-04-25T06:13:56.577Z,4.27
2019-04-25T06:16:39.865Z,2.10
2019-04-25T06:19:39.315Z,2.70
2019-04-25T06:22:15.420Z,6.27
2019-04-25T06:24:56.617Z,2.00
2019-04-25T06:27:56.155Z,5.60
2019-04-25T06:30:27.080Z,2.40
2019-04-25T06:32:58.064Z,2.73
2019-04-25T06:35:29.593Z,3.30
2019-04-25T06:38:06.462Z,2.73
2019-04-25T06:40:37.456Z,1.57
2019-04-25T06:43:08.298Z,2.97
2019-04-25T06:46:01.152Z,3.10
2019-04-25T06:48:45.529Z,1.27
2019-04-25T06:51:16.703Z,1.90
2019-04-25T06:53:47.697Z,1.27
2019-04-25T06:56:21.183Z,2.13
2019-04-25T06:58:53.301Z,3.10
2019-04-25T07:01:28.930Z,4.67
2019-04-25T07:04:01.289Z,1.37
2019-04-25T07:06:35.043Z,2.53
2019-04-25T07:09:09.672Z,4.47
2019-04-25T07:11:40.516Z,3.57
2019-04-25T07:14:11.656Z,2.13
2019-04-25T07:16:43.329Z,4.57
2019-04-25T07:19:17.773Z,5.70
2019-04-25T07:21:49.196Z,3.37
2019-04-25T07:24:20.234Z,1.37
2019-04-25T07:27:17.777Z,2.67
2019-04-25T07:30:06.560Z,1.57
2019-04-25T07:32:50.334Z,2.13
2019-04-25T07:35:23.315Z,2.43
2019-04-25T07:37:57.936Z,2.77
2019-04-25T07:40:36.031Z,3.10
2019-04-25T07:43:08.918Z,5.50
2019-04-25T07:45:40.735Z,1.67
2019-04-25T07:48:16.228Z,1.53
2019-04-25T07:50:47.284Z,2.57
2019-04-25T07:53:21.633Z,5.50
2019-04-25T07:55:54.196Z,2.17
2019-04-25T07:58:38.243Z,1.20
2019-04-25T08:01:03.723Z,2.33
2019-04-25T08:03:35.291Z,4.13
2019-04-25T08:06:07.457Z,3.70
2019-04-25T08:08:39.968Z,2.30
2019-04-25T08:11:14.314Z,4.40
2019-04-25T08:14:03.480Z,2.83
2019-04-25T08:16:37.617Z,2.70
2019-04-25T08:19:09.352Z,2.73
2019-04-25T08:21:45.112Z,1.70
2019-04-25T08:24:18.413Z,3.10
2019-04-25T08:26:53.445Z,2.63
2019-04-25T08:29:25.612Z,3.27
2019-04-25T08:31:58.191Z,2.40
2019-04-25T08:34:30.865Z,3.30
2019-04-25T08:37:18.001Z,1.20
2019-04-25T08:39:46.841Z,0.93
2019-04-25T08:42:19.751Z,4.37
2019-04-25T08:44:55.890Z,1.50
2019-04-25T08:47:31.356Z,3.60
2019-04-25T08:50:28.922Z,4.63
2019-04-25T08:52:54.395Z,1.87
2019-04-25T08:55:49.027Z,6.87
2019-04-25T08:58:48.172Z,2.07
2019-04-25T09:01:39.494Z,4.80
2019-04-25T09:04:18.425Z,2.60
2019-04-25T09:06:49.255Z,1.47
2019-04-25T09:09:35.354Z,0.87
2019-04-25T09:12:04.215Z,1.03
2019-04-25T09:14:36.493Z,4.20
2019-04-25T09:17:07.564Z,2.50
2019-04-25T09:19:40.008Z,1.57
2019-04-25T09:22:13.183Z,2.10
2019-04-25T09:24:45.380Z,2.43
2019-04-25T09:27:16.847Z,1.67
2019-04-25T09:29:48.064Z,2.47
2019-04-25T09:32:25.393Z,2.20
2019-04-25T09:34:56.601Z,1.90
2019-04-25T09:37:31.472Z,5.10
2019-04-25T09:40:14.499Z,2.03
2019-04-25T09:42:55.262Z,2.97
2019-04-25T09:45:51.325Z,2.60
2019-04-25T09:48:40.677Z,1.77
2019-04-25T09:51:17.829Z,1.60
2019-04-25T09:53:55.457Z,1.13
2019-04-25T09:56:44.521Z,3.40
2019-04-25T09:59:50.573Z,1.97
2019-04-25T10:02:24.733Z,0.97
2019-04-25T10:05:06.367Z,1.63
2019-04-25T10:07:38.458Z,1.77
2019-04-25T10:10:13.663Z,3.67
2019-04-25T10:12:49.988Z,2.93
2019-04-25T10:15:59.353Z,2.87
2019-04-25T10:18:34.016Z,1.90
2019-04-25T10:21:14.796Z,2.30
2019-04-25T10:23:51.220Z,3.13
2019-04-25T10:26:34.949Z,2.57
2019-04-25T10:29:08.881Z,1.43
2019-04-25T10:31:41.499Z,1.20
2019-04-25T10:34:14.143Z,1.70
2019-04-25T10:36:46.825Z,1.53
2019-04-25T10:39:23.036Z,2.20
2019-04-25T10:41:55.846Z,1.53
2019-04-25T10:44:27.518Z,2.37
2019-04-25T10:46:59.270Z,1.00
2019-04-25T10:49:30.386Z,4.03
2019-04-25T10:52:03.126Z,4.30
2019-04-25T10:54:37.600Z,1.40
2019-04-25T10:57:08.600Z,2.60
2019-04-25T11:00:00.964Z,0.80
2019-04-25T11:02:24.087Z,1.17
2019-04-25T11:05:23.834Z,1.07
2019-04-25T11:07:57.012Z,3.27
2019-04-25T11:10:37.150Z,2.20
2019-04-25T11:13:20.034Z,1.93
2019-04-25T11:15:51.993Z,1.93
2019-04-25T11:18:23.843Z,1.90
2019-04-25T11:20:59.821Z,1.40
2019-04-25T11:23:34.247Z,0.80
2019-04-25T11:26:29.354Z,2.43
2019-04-25T11:29:06.796Z,2.63
2019-04-25T11:31:47.017Z,1.87
2019-04-25T11:34:21.095Z,2.80
2019-04-25T11:36:53.288Z,3.70
2019-04-25T11:39:50.431Z,1.80
2019-04-25T11:42:24.595Z,16.53
2019-04-25T11:45:05.913Z,34.37
2019-04-25T11:47:37.395Z,3.10
2019-04-25T11:50:14.101Z,2.57
2019-04-25T11:52:50.519Z,1.37
2019-04-25T11:55:23.948Z,0.80
2019-04-25T11:57:55.879Z,1.90
2019-04-25T12:00:29.807Z,0.70
2019-04-25T12:03:03.674Z,2.27
2019-04-25T12:05:50.994Z,2.40
2019-04-25T12:08:24.282Z,2.73
2019-04-25T12:10:55.605Z,2.30
2019-04-25T12:13:27.152Z,0.73
2019-04-25T12:16:08.488Z,1.93
2019-04-25T12:18:39.320Z,3.40
2019-04-25T12:21:16.271Z,3.27
2019-04-25T12:24:03.785Z,2.00
2019-04-25T12:26:35.391Z,2.13
2019-04-25T12:29:10.542Z,2.07
2019-04-25T12:31:42.115Z,1.83
2019-04-25T12:34:33.761Z,1.33
2019-04-25T12:37:06.775Z,1.33
2019-04-25T12:39:38.214Z,1.13
2019-04-25T12:42:14.469Z,2.43
2019-04-25T12:45:04.160Z,3.20
2019-04-25T12:47:41.312Z,1.07
2019-04-25T12:50:18.635Z,2.03
2019-04-25T12:52:50.623Z,6.47
2019-04-25T12:55:24.375Z,4.27
2019-04-25T12:57:58.405Z,2.37
2019-04-25T13:00:32.224Z,2.80
2019-04-25T13:03:04.068Z,1.17
2019-04-25T13:05:38.447Z,3.63
2019-04-25T13:08:14.203Z,1.27
2019-04-25T13:10:51.708Z,2.20
2019-04-25T13:13:24.048Z,2.73
2019-04-25T13:15:55.307Z,2.30
2019-04-25T13:18:26.907Z,2.40
2019-04-25T13:20:58.475Z,4.70
2019-04-25T13:23:34.280Z,2.20
2019-04-25T13:26:08.698Z,2.10
2019-04-25T13:28:56.255Z,2.57
2019-04-25T13:31:55.773Z,1.33
2019-04-25T13:34:36.315Z,2.23
2019-04-25T13:37:05.275Z,3.23
2019-04-25T13:39:39.373Z,3.70
2019-04-25T13:42:16.003Z,5.40
2019-04-25T13:44:47.357Z,3.57
2019-04-25T13:47:19.079Z,6.33
2019-04-25T13:49:51.660Z,2.07
2019-04-25T13:52:22.794Z,4.10
2019-04-25T13:55:07.749Z,2.87
2019-04-25T13:57:40.891Z,2.10
2019-04-25T14:00:17.430Z,1.30
2019-04-25T14:02:51.394Z,1.40
2019-04-25T14:05:24.922Z,1.90
2019-04-25T14:07:56.701Z,3.97
2019-04-25T14:10:30.084Z,2.70
2019-04-25T14:13:01.249Z,2.83
2019-04-25T14:15:34.399Z,3.57
2019-04-25T14:18:39.296Z,4.00
2019-04-25T14:21:16.111Z,4.70
2019-04-25T14:23:47.301Z,1.27
2019-04-25T14:26:27.022Z,2.47
2019-04-25T14:28:58.020Z,2.77
2019-04-25T14:31:42.358Z,2.80
2019-04-25T14:34:09.408Z,1.03
2019-04-25T14:36:40.537Z,1.80
2019-04-25T14:39:18.333Z,1.33
2019-04-25T14:41:49.377Z,3.07
2019-04-25T14:44:23.856Z,2.40
2019-04-25T14:46:55.619Z,2.40
2019-04-25T14:49:30.541Z,5.67
2019-04-25T14:52:03.991Z,3.60
2019-04-25T14:54:47.871Z,5.07
2019-04-25T14:57:26.111Z,1.40
2019-04-25T15:00:01.269Z,5.23
2019-04-25T15:02:39.232Z,1.37
2019-04-25T15:05:12.492Z,1.80
2019-04-25T15:07:45.071Z,1.60
2019-04-25T15:10:20.157Z,3.47
2019-04-25T15:12:53.500Z,1.30
2019-04-25T15:15:29.328Z,3.57
2019-04-25T15:18:03.777Z,5.57
2019-04-25T15:20:46.123Z,3.53
2019-04-25T15:23:25.446Z,1.13
2019-04-25T15:26:10.106Z,6.50
2019-04-25T15:28:44.755Z,2.23
2019-04-25T15:31:17.493Z,2.70
2019-04-25T15:33:48.544Z,4.03
2019-04-25T15:36:44.412Z,3.00
2019-04-25T15:39:59.154Z,3.43
2019-04-25T15:42:47.322Z,4.37
2019-04-25T15:45:43.020Z,2.77
2019-04-25T15:48:19.406Z,2.43
2019-04-25T15:50:52.576Z,4.80
2019-04-25T15:53:23.996Z,5.90
2019-04-25T15:55:55.218Z,1.53
2019-04-25T15:58:26.463Z,9.53
2019-04-25T16:00:59.040Z,2.97
2019-04-25T16:03:35.209Z,4.37
2019-04-25T16:06:06.311Z,2.23
2019-04-25T16:08:42.176Z,2.90
2019-04-25T16:11:12.970Z,2.17
2019-04-25T16:13:49.873Z,1.77
2019-04-25T16:16:19.692Z,2.43
2019-04-25T16:18:54.128Z,2.97
2019-04-25T16:21:25.182Z,2.20
2019-04-25T16:23:56.170Z,3.63
2019-04-25T16:26:34.577Z,4.87
2019-04-25T16:29:15.052Z,2.43
2019-04-25T16:31:52.370Z,2.90
2019-04-25T16:34:23.488Z,3.13
2019-04-25T16:36:54.922Z,2.33
2019-04-25T16:39:30.937Z,2.33
2019-04-25T16:42:06.385Z,1.80
2019-04-25T16:44:43.502Z,2.77
2019-04-25T16:47:17.137Z,4.27
2019-04-25T16:49:49.696Z,3.27
2019-04-25T16:52:20.848Z,2.10
2019-04-25T16:54:54.371Z,4.33
2019-04-25T16:57:25.756Z,4.27
2019-04-25T17:00:01.175Z,5.90
2019-04-25T17:02:37.508Z,2.63
2019-04-25T17:05:10.107Z,2.73
2019-04-25T17:07:43.115Z,2.43
2019-04-25T17:10:17.495Z,2.13
2019-04-25T17:12:48.739Z,3.43
2019-04-25T17:15:36.572Z,2.67
2019-04-25T17:18:17.413Z,3.63
2019-04-25T17:21:14.567Z,5.97
2019-04-25T17:23:47.989Z,3.30
2019-04-25T17:26:22.176Z,6.37
2019-04-25T17:28:58.100Z,6.53
2019-04-25T17:31:47.678Z,3.03
2019-04-25T17:34:43.180Z,6.40
2019-04-25T17:37:24.236Z,4.67
2019-04-25T17:40:01.197Z,3.10
2019-04-25T17:42:38.956Z,4.40
2019-04-25T17:45:16.952Z,2.60
2019-04-25T17:47:54.965Z,1.97
2019-04-25T17:50:31.912Z,4.17
2019-04-25T17:53:11.181Z,1.83
2019-04-25T17:55:46.512Z,2.07
2019-04-25T17:58:20.294Z,4.13
2019-04-25T18:01:11.278Z,2.03
2019-04-25T18:03:40.400Z,2.43
2019-04-25T18:06:18.677Z,2.23
2019-04-25T18:08:59.075Z,3.10
2019-04-25T18:11:36.008Z,3.90
2019-04-25T18:14:34.042Z,3.73
2019-04-25T18:17:16.557Z,4.17
2019-04-25T18:20:00.493Z,7.83
2019-04-25T18:23:00.246Z,8.67
2019-04-25T18:26:00.320Z,6.70
2019-04-25T18:28:55.968Z,5.13
2019-04-25T18:31:28.227Z,2.60
2019-04-25T18:34:05.511Z,2.90
2019-04-25T18:36:56.437Z,4.20
2019-04-25T18:39:53.294Z,2.70
2019-04-25T18:42:46.202Z,4.93
2019-04-25T18:45:23.484Z,6.70
2019-04-25T18:47:54.481Z,5.70
2019-04-25T18:50:27.455Z,3.30
2019-04-25T18:53:25.900Z,5.63
2019-04-25T18:56:41.834Z,3.97
2019-04-25T18:59:32.199Z,7.50
2019-04-25T19:02:23.690Z,8.23
2019-04-25T19:05:40.977Z,7.00
2019-04-25T19:08:15.389Z,6.13
2019-04-25T19:10:48.207Z,8.53
2019-04-25T19:13:19.327Z,6.47
2019-04-25T19:16:05.176Z,7.77
2019-04-25T19:18:45.441Z,4.17
2019-04-25T19:21:21.687Z,5.07
2019-04-25T19:24:02.311Z,3.43
2019-04-25T19:26:36.003Z,6.30
2019-04-25T19:29:10.681Z,4.47
2019-04-25T19:31:53.056Z,7.77
2019-04-25T19:34:24.212Z,3.23
2019-04-25T19:36:58.217Z,9.00
2019-04-25T19:39:32.738Z,4.37
2019-04-25T19:42:25.956Z,8.50
2019-04-25T19:45:00.099Z,7.33
2019-04-25T19:47:34.877Z,3.73
2019-04-25T19:50:10.708Z,4.10
2019-04-25T19:52:43.839Z,10.10
2019-04-25T19:55:22.075Z,2.90
2019-04-25T19:58:03.890Z,4.30
2019-04-25T20:00:38.896Z,5.07
2019-04-25T20:03:27.510Z,8.67
2019-04-25T20:06:19.834Z,6.07
2019-04-25T20:11:40.429Z,6.80
2019-04-25T20:14:11.167Z,4.70
2019-04-25T20:16:47.678Z,5.33
2019-04-25T20:19:20.954Z,8.23
2019-04-25T20:21:54.854Z,3.27
2019-04-25T20:24:28.750Z,6.63
2019-04-25T20:27:00.979Z,5.70
2019-04-25T20:29:37.593Z,4.80
2019-04-25T20:32:10.146Z,6.07
2019-04-25T20:34:56.926Z,5.43
2019-04-25T20:37:33.078Z,8.93
2019-04-25T20:40:09.706Z,7.83
2019-04-25T20:42:49.853Z,8.27
2019-04-25T20:45:30.506Z,5.20
2019-04-25T20:48:05.182Z,5.00
2019-04-25T20:50:40.826Z,11.33
2019-04-25T20:53:16.759Z,5.73
2019-04-25T20:55:59.349Z,4.70
2019-04-25T20:58:31.975Z,4.60
2019-04-25T21:01:05.375Z,6.67
2019-04-25T21:03:42.365Z,5.13
2019-04-25T21:06:28.829Z,4.13
2019-04-25T21:08:59.886Z,5.37
2019-04-25T21:11:33.809Z,10.13
2019-04-25T21:14:28.431Z,4.83
2019-04-25T21:17:12.840Z,4.20
2019-04-25T21:19:48.719Z,8.77
2019-04-25T21:22:21.744Z,3.30
2019-04-25T21:24:55.852Z,4.20
2019-04-25T21:27:27.653Z,4.50
2019-04-25T21:29:59.786Z,5.43
2019-04-25T21:32:34.273Z,5.97
2019-04-25T21:35:05.719Z,6.67
2019-04-25T21:37:49.244Z,20.97
2019-04-25T21:40:59.934Z,23.73
2019-04-25T21:43:37.180Z,18.83
2019-04-25T21:46:08.903Z,15.50
2019-04-25T21:48:40.416Z,11.80
2019-04-25T21:51:33.705Z,6.00
2019-04-25T21:54:05.567Z,7.27
2019-04-25T21:56:39.208Z,5.37
2019-04-25T21:59:14.815Z,6.07
2019-04-25T22:01:48.542Z,7.13
2019-04-25T22:04:38.540Z,10.73
2019-04-25T22:07:01.392Z,11.17
2019-04-25T22:09:34.708Z,7.17
2019-04-25T22:12:09.200Z,5.73
2019-04-25T22:14:43.499Z,9.47
2019-04-25T22:17:23.856Z,6.30
2019-04-25T22:19:55.659Z,4.47
2019-04-25T22:22:28.397Z,5.23
2019-04-25T22:25:02.679Z,6.13
2019-04-25T22:27:36.868Z,4.37
2019-04-25T22:30:10.661Z,5.63
2019-04-25T22:33:04.323Z,10.67
2019-04-25T22:35:43.847Z,6.20
2019-04-25T22:38:18.487Z,7.33
2019-04-25T22:40:53.433Z,4.83
2019-04-25T22:43:24.692Z,11.63
2019-04-25T22:45:58.554Z,21.63
2019-04-25T22:48:54.631Z,27.10
2019-04-25T22:51:32.612Z,29.90
2019-04-25T22:54:07.396Z,17.63
2019-04-25T22:56:47.153Z,14.90
2019-04-25T22:59:22.827Z,7.20
2019-04-25T23:02:05.443Z,7.43
2019-04-25T23:04:51.189Z,5.77
2019-04-25T23:07:23.544Z,9.60
2019-04-25T23:09:55.036Z,7.43
2019-04-25T23:12:26.273Z,5.87
2019-04-25T23:14:57.428Z,7.70
2019-04-25T23:17:28.895Z,7.60
2019-04-25T23:20:00.141Z,11.53
2019-04-25T23:22:31.192Z,10.10
2019-04-25T23:25:09.932Z,10.60
2019-04-25T23:28:01.121Z,8.60
2019-04-25T23:30:56.558Z,7.13
2019-04-25T23:33:27.773Z,6.53
2019-04-25T23:35:59.358Z,7.27
2019-04-25T23:38:30.454Z,9.83
2019-04-25T23:41:02.541Z,5.97
2019-04-25T23:43:33.599Z,9.73
2019-04-25T23:46:07.291Z,7.17
2019-04-25T23:48:39.707Z,8.07
2019-04-25T23:51:11.346Z,9.27
2019-04-25T23:53:42.686Z,6.73
2019-04-25T23:56:13.938Z,6.50
2019-04-25T23:58:45.597Z,6.00
